Old Landing, Kentucky
Current Conditions -  °F | °C
As of 2:53 PM on Monday 24 Nov 2014 (Local Time) from KJKL Reporting Station
Clear Clear  
Wind Chill: 65°   Ceiling: Unl
Heat Index: 65°   Visibility: 10mi
Dew Point: 43°   Wind: 10mph
Humidity: 45%   Direction: 230°SW
Pressure: 29.68"   Gusts: 21mph
Location:  37.5908°N, 83.7186°W
Report Text: KJKL 241953Z AUTO 23009G18KT 10SM CLR 18/06 A2968 RMK AO2 PK WND 27026/1929 SLP040 T01830061
Loading
Personal Weather Stations






























Interactive Weather Map New forecast layout! Learn more

10-Day Weather Forecast

Advertisements
Track Severe Weather on mobile